createdAt,value
2022-10-20T00:00:07.976Z,97492.25
2022-10-20T00:02:10.612Z,97497.47
2022-10-20T00:04:13.302Z,97485.31
2022-10-20T00:06:19.848Z,97486.19
2022-10-20T00:08:22.727Z,97487.47
2022-10-20T00:10:25.360Z,97495.72
2022-10-20T00:12:27.932Z,97489.84
2022-10-20T00:14:30.508Z,97485.56
2022-10-20T00:16:38.033Z,97482.38
2022-10-20T00:18:40.944Z,97483.44
2022-10-20T00:20:43.632Z,97481.81
2022-10-20T00:22:46.260Z,97480.88
2022-10-20T00:24:48.826Z,97484.34
2022-10-20T00:26:51.400Z,97485.38
2022-10-20T00:28:54.689Z,97480.16
2022-10-20T00:30:57.884Z,97482.91
2022-10-20T00:33:02.869Z,97484.03
2022-10-20T00:35:06.842Z,97485.75
2022-10-20T00:37:09.469Z,97478.84
2022-10-20T00:39:12.009Z,97483.25
2022-10-20T00:41:15.800Z,97472.88
2022-10-20T00:43:18.972Z,97475.47
2022-10-20T00:45:23.124Z,97477.25
2022-10-20T00:47:36.879Z,97472.97
2022-10-20T00:49:41.680Z,97477.38
2022-10-20T00:51:44.899Z,97468.66
2022-10-20T00:53:49.688Z,97468.66
2022-10-20T00:55:55.727Z,97469.72
2022-10-20T00:58:01.854Z,97461.94
2022-10-20T01:00:06.484Z,97457.69
2022-10-20T01:02:10.405Z,97447.34
2022-10-20T01:04:13.228Z,97441.22
2022-10-20T01:06:20.052Z,97442.09
2022-10-20T01:08:22.610Z,97436.88
2022-10-20T01:10:27.891Z,97437.03
2022-10-20T01:12:39.598Z,97443.09
2022-10-20T01:14:50.327Z,97442.09
2022-10-20T01:17:03.952Z,97441.00
2022-10-20T01:19:25.144Z,97440.94
2022-10-20T01:21:48.704Z,97430.53
2022-10-20T01:24:06.862Z,97431.59
2022-10-20T01:26:43.603Z,97433.69
2022-10-20T01:28:55.702Z,97424.47
2022-10-20T01:31:01.104Z,97419.31
2022-10-20T01:33:13.635Z,97417.59
2022-10-20T01:35:25.340Z,97422.00
2022-10-20T01:37:48.427Z,97421.91
2022-10-20T01:39:55.411Z,97414.72
2022-10-20T01:42:01.676Z,97415.66
2022-10-20T01:44:09.387Z,97408.56
2022-10-20T01:46:13.633Z,97413.69
2022-10-20T01:48:21.175Z,97412.03
2022-10-20T01:50:25.954Z,97413.63
2022-10-20T01:52:30.156Z,97400.63
2022-10-20T01:54:32.752Z,97398.75
2022-10-20T01:56:40.905Z,97394.38
2022-10-20T01:59:15.351Z,97389.88
2022-10-20T02:01:27.600Z,97396.03
2022-10-20T02:03:39.639Z,97396.03
2022-10-20T02:05:53.921Z,97389.94
2022-10-20T02:08:04.995Z,97389.16
2022-10-20T02:10:13.486Z,97384.84
2022-10-20T02:12:20.515Z,97385.66
2022-10-20T02:14:24.869Z,97380.41
2022-10-20T02:16:30.889Z,97375.22
2022-10-20T02:18:37.924Z,97370.06
2022-10-20T02:20:44.405Z,97363.22
2022-10-20T02:22:48.740Z,97374.53
2022-10-20T02:24:51.490Z,97370.94
2022-10-20T02:26:58.594Z,97372.56
2022-10-20T02:29:04.820Z,97364.66
2022-10-20T02:31:09.487Z,97358.56
2022-10-20T02:33:13.122Z,97362.84
2022-10-20T02:35:19.601Z,97363.59
2022-10-20T02:37:22.173Z,97354.00
2022-10-20T02:39:24.788Z,97356.59
2022-10-20T02:41:27.647Z,97354.00
2022-10-20T02:43:30.205Z,97347.00
2022-10-20T02:45:32.742Z,97347.06
2022-10-20T02:47:36.983Z,97349.63
2022-10-20T02:49:39.770Z,97346.22
2022-10-20T02:51:42.348Z,97347.91
2022-10-20T02:53:45.169Z,97351.44
2022-10-20T02:55:47.750Z,97347.91
2022-10-20T02:57:51.209Z,97341.13
2022-10-20T02:59:54.276Z,97354.06
2022-10-20T03:01:56.945Z,97353.19
2022-10-20T03:04:00.871Z,97354.00
2022-10-20T03:06:08.937Z,97349.69
2022-10-20T03:08:11.636Z,97352.38
2022-10-20T03:10:14.179Z,97345.44
2022-10-20T03:12:16.816Z,97352.38
2022-10-20T03:14:19.385Z,97344.53
2022-10-20T03:16:21.990Z,97355.16
2022-10-20T03:18:24.707Z,97344.84
2022-10-20T03:20:28.629Z,97342.31
2022-10-20T03:22:31.292Z,97344.06
2022-10-20T03:24:33.918Z,97345.00
2022-10-20T03:26:36.581Z,97340.59
2022-10-20T03:28:39.332Z,97346.69
2022-10-20T03:30:41.987Z,97349.94
2022-10-20T03:32:44.680Z,97344.63
2022-10-20T03:34:47.257Z,97343.53
2022-10-20T03:36:51.233Z,97346.78
2022-10-20T03:38:53.820Z,97353.59
2022-10-20T03:40:56.482Z,97349.94
2022-10-20T03:42:59.140Z,97341.94
2022-10-20T03:45:01.714Z,97347.66
2022-10-20T03:47:04.317Z,97338.88
2022-10-20T03:49:06.866Z,97343.22
2022-10-20T03:51:10.127Z,97343.06
2022-10-20T03:53:15.342Z,97337.69
2022-10-20T03:55:19.521Z,97330.53
2022-10-20T03:57:22.160Z,97323.56
2022-10-20T03:59:26.793Z,97325.38
2022-10-20T04:01:33.901Z,97325.38
2022-10-20T04:03:36.513Z,97320.16
2022-10-20T04:05:39.119Z,97329.78
2022-10-20T04:07:41.891Z,97326.31
2022-10-20T04:09:45.795Z,97318.53
2022-10-20T04:11:48.380Z,97309.84
2022-10-20T04:13:51.595Z,97312.47
2022-10-20T04:15:54.193Z,97308.91
2022-10-20T04:17:56.772Z,97315.84
2022-10-20T04:19:59.363Z,97315.06
2022-10-20T04:22:02.076Z,97316.91
2022-10-20T04:24:05.501Z,97317.75
2022-10-20T04:26:15.049Z,97318.75
2022-10-20T04:28:21.356Z,97311.19
2022-10-20T04:30:23.964Z,97316.69
2022-10-20T04:32:26.643Z,97308.91
2022-10-20T04:34:29.201Z,97307.16
2022-10-20T04:36:31.797Z,97305.38
2022-10-20T04:38:35.684Z,97306.44
2022-10-20T04:40:38.285Z,97315.97
2022-10-20T04:42:42.215Z,97308.19
2022-10-20T04:44:44.827Z,97305.56
2022-10-20T04:46:47.440Z,97312.63
2022-10-20T04:48:53.506Z,97306.50
2022-10-20T04:51:03.522Z,97300.50
2022-10-20T04:53:06.146Z,97304.88
2022-10-20T04:55:09.879Z,97300.50
2022-10-20T04:57:12.437Z,97305.72
2022-10-20T04:59:16.338Z,97295.41
2022-10-20T05:01:19.504Z,97298.94
2022-10-20T05:03:22.325Z,97297.38
2022-10-20T05:05:24.922Z,97296.53
2022-10-20T05:07:30.356Z,97283.59
2022-10-20T05:09:33.134Z,97282.81
2022-10-20T05:11:38.206Z,97284.72
2022-10-20T05:13:41.144Z,97285.56
2022-10-20T05:15:45.081Z,97285.66
2022-10-20T05:17:47.665Z,97272.69
2022-10-20T05:19:52.601Z,97269.16
2022-10-20T05:21:55.300Z,97267.38
2022-10-20T05:23:58.920Z,97257.78
2022-10-20T05:26:03.534Z,97256.75
2022-10-20T05:28:06.895Z,97258.28
2022-10-20T05:30:10.739Z,97262.47
2022-10-20T05:32:14.671Z,97257.09
2022-10-20T05:34:17.649Z,97247.47
2022-10-20T05:36:22.097Z,97243.09
2022-10-20T05:38:24.664Z,97230.03
2022-10-20T05:40:27.277Z,97228.31
2022-10-20T05:42:29.929Z,97230.84
2022-10-20T05:44:32.610Z,97243.09
2022-10-20T05:46:38.315Z,97239.63
2022-10-20T05:48:43.278Z,97237.88
2022-10-20T05:52:53.912Z,97243.25
2022-10-20T05:54:56.493Z,97247.63
2022-10-20T05:56:59.079Z,97246.63
2022-10-20T05:59:01.751Z,97237.16
2022-10-20T06:01:09.330Z,97238.03
2022-10-20T06:03:13.941Z,97239.16
2022-10-20T06:05:21.356Z,97237.34
2022-10-20T06:07:24.033Z,97235.59
2022-10-20T06:09:26.649Z,97235.59
2022-10-20T06:11:29.223Z,97240.84
2022-10-20T06:13:32.086Z,97233.84
2022-10-20T06:15:34.699Z,97233.22
2022-10-20T06:17:37.321Z,97244.50
2022-10-20T06:19:42.129Z,97247.09
2022-10-20T06:21:47.437Z,97245.34
2022-10-20T06:23:52.413Z,97248.03
2022-10-20T06:25:55.076Z,97254.94
2022-10-20T06:28:00.694Z,97261.13
2022-10-20T06:30:03.307Z,97254.28
2022-10-20T06:32:06.516Z,97254.19
2022-10-20T06:34:12.566Z,97249.09
2022-10-20T06:36:16.556Z,97254.28
2022-10-20T06:38:20.493Z,97262.16
2022-10-20T06:40:23.095Z,97266.50
2022-10-20T06:42:25.753Z,97265.56
2022-10-20T06:44:28.423Z,97263.81
2022-10-20T06:46:32.643Z,97271.56
2022-10-20T06:48:36.176Z,97275.81
2022-10-20T06:50:38.775Z,97279.41
2022-10-20T06:52:41.402Z,97277.59
2022-10-20T06:54:45.344Z,97272.44
2022-10-20T06:56:47.948Z,97271.50
2022-10-20T06:58:52.463Z,97269.81
2022-10-20T07:00:59.876Z,97274.13
2022-10-20T07:03:02.462Z,97287.13
2022-10-20T07:05:05.842Z,97286.94
2022-10-20T07:07:08.624Z,97274.63
2022-10-20T07:09:14.930Z,97274.75
2022-10-20T07:11:20.790Z,97273.22
2022-10-20T07:13:23.377Z,97266.13
2022-10-20T07:15:26.016Z,97263.50
2022-10-20T07:17:28.651Z,97258.22
2022-10-20T07:19:31.737Z,97267.84
2022-10-20T07:21:40.202Z,97273.94
2022-10-20T07:23:44.968Z,97267.63
2022-10-20T07:25:47.574Z,97264.03
2022-10-20T07:27:51.503Z,97257.78
2022-10-20T07:29:54.376Z,97254.97
2022-10-20T07:31:58.809Z,97253.00
2022-10-20T07:34:12.880Z,97259.66
2022-10-20T07:36:18.264Z,97263.69
2022-10-20T07:38:20.901Z,97260.91
2022-10-20T07:42:31.037Z,97248.22
2022-10-20T07:44:37.418Z,97249.78
2022-10-20T07:46:40.032Z,97248.72
2022-10-20T07:48:43.035Z,97251.13
2022-10-20T07:50:47.628Z,97244.81
2022-10-20T07:52:52.076Z,97251.50
2022-10-20T07:55:06.263Z,97261.00
2022-10-20T07:57:17.217Z,97249.53
2022-10-20T07:59:20.163Z,97246.00
2022-10-20T08:01:24.206Z,97235.34
2022-10-20T08:03:26.837Z,97246.69
2022-10-20T08:05:30.038Z,97244.00
2022-10-20T08:07:32.585Z,97249.22
2022-10-20T08:09:35.249Z,97248.25
2022-10-20T08:11:37.915Z,97248.16
2022-10-20T08:13:41.097Z,97248.09
2022-10-20T08:15:48.851Z,97251.41
2022-10-20T08:17:52.819Z,97242.53
2022-10-20T08:22:12.957Z,97236.13
2022-10-20T08:24:15.611Z,97232.53
2022-10-20T08:26:20.238Z,97241.09
2022-10-20T08:28:24.788Z,97230.38
2022-10-20T08:30:28.903Z,97228.47
2022-10-20T08:32:31.458Z,97222.22
2022-10-20T08:34:35.453Z,97235.09
2022-10-20T08:36:38.138Z,97231.53
2022-10-20T08:38:42.543Z,97235.78
2022-10-20T08:40:45.416Z,97233.78
2022-10-20T08:42:50.127Z,97235.34
2022-10-20T08:44:55.341Z,97237.72
2022-10-20T08:46:58.504Z,97241.88
2022-10-20T08:49:02.717Z,97247.81
2022-10-20T08:51:06.948Z,97252.78
2022-10-20T08:53:12.905Z,97248.25
2022-10-20T08:55:23.451Z,97254.09
2022-10-20T08:57:28.539Z,97253.94
2022-10-20T08:59:39.099Z,97237.13
2022-10-20T09:01:42.421Z,97251.75
2022-10-20T09:03:45.054Z,97245.41
2022-10-20T09:05:52.857Z,97248.72
2022-10-20T09:07:56.816Z,97249.41
2022-10-20T09:10:05.608Z,97244.84
2022-10-20T09:12:13.415Z,97241.97
2022-10-20T09:14:16.849Z,97240.97
2022-10-20T09:16:40.466Z,97250.44
2022-10-20T09:18:54.061Z,97264.09
2022-10-20T09:21:00.745Z,97255.28
2022-10-20T09:23:16.614Z,97273.56
2022-10-20T09:25:27.523Z,97254.09
2022-10-20T09:27:34.827Z,97252.06
2022-10-20T09:29:40.355Z,97242.94
2022-10-20T09:31:45.167Z,97258.50
2022-10-20T09:33:47.817Z,97252.25
2022-10-20T09:35:51.869Z,97261.56
2022-10-20T09:38:17.625Z,97263.94
2022-10-20T09:40:20.919Z,97265.56
2022-10-20T09:42:29.761Z,97274.22
2022-10-20T09:44:34.816Z,97283.78
2022-10-20T09:46:40.791Z,97284.63
2022-10-20T09:48:48.982Z,97277.59
2022-10-20T09:50:55.149Z,97276.34
2022-10-20T09:53:00.564Z,97273.44
2022-10-20T09:55:08.735Z,97273.34
2022-10-20T09:57:19.019Z,97273.19
2022-10-20T09:59:25.194Z,97281.00
2022-10-20T10:01:28.013Z,97278.28
2022-10-20T10:03:39.917Z,97276.31
2022-10-20T10:05:42.566Z,97275.22
2022-10-20T10:07:45.462Z,97275.13
2022-10-20T10:09:53.771Z,97272.41
2022-10-20T10:12:03.304Z,97268.75
2022-10-20T10:14:06.684Z,97270.00
2022-10-20T10:16:11.357Z,97281.19
2022-10-20T10:18:15.709Z,97281.88
2022-10-20T10:20:33.344Z,97285.06
2022-10-20T10:22:36.958Z,97282.00
2022-10-20T10:24:43.507Z,97281.84
2022-10-20T10:26:52.855Z,97281.00
2022-10-20T10:29:00.348Z,97286.16
2022-10-20T10:31:19.510Z,97292.16
2022-10-20T10:33:28.268Z,97283.16
2022-10-20T10:35:34.381Z,97275.94
2022-10-20T10:37:39.594Z,97285.28
2022-10-20T10:39:43.151Z,97277.00
2022-10-20T10:42:00.183Z,97278.72
2022-10-20T10:44:12.191Z,97278.72
2022-10-20T10:46:20.201Z,97273.47
2022-10-20T10:48:54.300Z,97282.00
2022-10-20T10:50:59.885Z,97271.31
2022-10-20T10:53:14.339Z,97263.41
2022-10-20T10:55:48.453Z,97267.00
2022-10-20T10:57:56.288Z,97259.19
2022-10-20T11:00:03.113Z,97253.91
2022-10-20T11:02:41.375Z,97258.16
2022-10-20T11:05:18.410Z,97257.81
2022-10-20T11:07:30.558Z,97246.34
2022-10-20T11:09:45.330Z,97241.00
2022-10-20T11:12:00.985Z,97241.41
2022-10-20T11:14:16.739Z,97247.97
2022-10-20T11:16:37.092Z,97238.13
2022-10-20T11:19:01.447Z,97227.50
2022-10-20T11:21:21.307Z,97231.66
2022-10-20T11:23:50.006Z,97228.81
2022-10-20T11:25:59.338Z,97228.66
2022-10-20T11:28:02.256Z,97237.00
2022-10-20T11:30:15.561Z,97228.06
2022-10-20T11:32:26.662Z,97223.84
2022-10-20T11:34:34.713Z,97223.25
2022-10-20T11:36:43.401Z,97215.34
2022-10-20T11:38:50.319Z,97217.81
2022-10-20T11:41:00.508Z,97223.09
2022-10-20T11:43:13.832Z,97219.50
2022-10-20T11:45:40.418Z,97212.66
2022-10-20T11:47:47.810Z,97203.91
2022-10-20T11:49:50.475Z,97205.97
2022-10-20T11:52:28.036Z,97196.59
2022-10-20T11:54:46.831Z,97198.75
2022-10-20T11:57:02.227Z,97199.63
2022-10-20T11:59:32.985Z,97190.13
2022-10-20T12:01:41.608Z,97182.53
2022-10-20T12:04:09.080Z,97173.03
2022-10-20T12:06:33.257Z,97167.09
2022-10-20T12:09:11.555Z,97168.16
2022-10-20T12:11:19.415Z,97172.47
2022-10-20T12:13:33.222Z,97181.00
2022-10-20T12:15:46.409Z,97193.69
2022-10-20T12:17:50.554Z,97168.22
2022-10-20T12:20:29.333Z,97146.16
2022-10-20T12:22:41.777Z,97135.53
2022-10-20T12:25:05.276Z,97122.28
2022-10-20T12:27:27.606Z,97131.00
2022-10-20T12:30:00.170Z,97142.47
2022-10-20T12:32:25.753Z,97141.53
2022-10-20T12:34:40.301Z,97130.38
2022-10-20T12:36:44.310Z,97133.09
2022-10-20T12:38:49.021Z,97156.88
2022-10-20T12:40:57.753Z,97164.00
2022-10-20T12:43:01.299Z,97148.44
2022-10-20T12:45:07.572Z,97148.59
2022-10-20T12:47:11.789Z,97157.34
2022-10-20T12:49:25.613Z,97155.56
2022-10-20T12:51:41.229Z,97150.41
2022-10-20T12:53:55.242Z,97139.97
2022-10-20T12:55:59.550Z,97146.16
2022-10-20T12:58:12.941Z,97139.97
2022-10-20T13:00:58.478Z,97140.91
2022-10-20T13:03:01.214Z,97118.09
2022-10-20T13:05:24.905Z,97118.00
2022-10-20T13:08:17.329Z,97118.00
2022-10-20T13:10:37.760Z,97115.25
2022-10-20T13:12:41.748Z,97113.47
2022-10-20T13:14:55.599Z,97108.97
2022-10-20T13:17:12.741Z,97113.19
2022-10-20T13:19:20.647Z,97111.94
2022-10-20T13:21:34.907Z,97105.63
2022-10-20T13:23:40.743Z,97096.72
2022-10-20T13:25:47.171Z,97104.50
2022-10-20T13:27:51.353Z,97100.84
2022-10-20T13:29:54.347Z,97103.28
2022-10-20T13:32:06.990Z,97106.56
2022-10-20T13:34:19.394Z,97102.97
2022-10-20T13:36:47.048Z,97100.97
2022-10-20T13:38:59.817Z,97108.59
2022-10-20T13:41:08.743Z,97113.66
2022-10-20T13:43:30.484Z,97117.03
2022-10-20T13:45:44.755Z,97126.50
2022-10-20T13:47:51.040Z,97134.28
2022-10-20T13:50:05.645Z,97133.47
2022-10-20T13:52:14.761Z,97147.56
2022-10-20T13:54:23.569Z,97146.81
2022-10-20T13:56:35.271Z,97135.56
2022-10-20T13:58:39.176Z,97125.97
2022-10-20T14:00:41.843Z,97126.06
2022-10-20T14:02:54.138Z,97133.09
2022-10-20T14:05:03.899Z,97127.94
2022-10-20T14:07:09.935Z,97123.75
2022-10-20T14:09:17.816Z,97114.25
2022-10-20T14:11:20.976Z,97116.03
2022-10-20T14:13:27.623Z,97115.28
2022-10-20T14:15:34.564Z,97111.81
2022-10-20T14:17:40.665Z,97114.53
2022-10-20T14:19:46.101Z,97109.50
2022-10-20T14:21:50.989Z,97098.22
2022-10-20T14:23:53.685Z,97105.34
2022-10-20T14:25:57.853Z,97112.28
2022-10-20T14:28:05.114Z,97115.03
2022-10-20T14:30:17.142Z,97098.38
2022-10-20T14:32:23.740Z,97094.94
2022-10-20T14:34:29.798Z,97092.31
2022-10-20T14:36:32.496Z,97084.50
2022-10-20T14:38:37.897Z,97075.88
2022-10-20T14:40:40.631Z,97080.38
2022-10-20T14:42:45.731Z,97081.13
2022-10-20T14:44:48.805Z,97084.69
2022-10-20T14:46:53.426Z,97077.75
2022-10-20T14:48:59.441Z,97091.94
2022-10-20T14:51:02.659Z,97096.47
2022-10-20T14:53:30.807Z,97096.53
2022-10-20T14:55:37.116Z,97087.06
2022-10-20T14:57:44.283Z,97075.81
2022-10-20T14:59:52.156Z,97070.66
2022-10-20T15:02:02.173Z,97060.78
2022-10-20T15:04:17.460Z,97061.91
2022-10-20T15:06:20.117Z,97062.84
2022-10-20T15:08:28.368Z,97074.31
2022-10-20T15:10:31.879Z,97080.50
2022-10-20T15:12:42.561Z,97100.69
2022-10-20T15:14:48.710Z,97125.31
2022-10-20T15:16:51.469Z,97117.53
2022-10-20T15:19:13.912Z,97103.53
2022-10-20T15:21:16.472Z,97092.25
2022-10-20T15:23:20.608Z,97093.13
2022-10-20T15:25:23.633Z,97087.94
2022-10-20T15:27:27.137Z,97082.69
2022-10-20T15:29:30.943Z,97089.63
2022-10-20T15:31:33.650Z,97102.78
2022-10-20T15:33:36.326Z,97109.84
2022-10-20T15:35:44.530Z,97097.63
2022-10-20T15:37:49.549Z,97091.50
2022-10-20T15:39:52.136Z,97085.50
2022-10-20T15:41:54.725Z,97094.13
2022-10-20T15:43:58.133Z,97082.88
2022-10-20T15:46:00.779Z,97079.47
2022-10-20T15:48:03.401Z,97076.09
2022-10-20T15:50:06.514Z,97084.09
2022-10-20T15:52:11.502Z,97084.09
2022-10-20T15:54:15.992Z,97083.34
2022-10-20T15:56:19.444Z,97103.63
2022-10-20T15:58:22.025Z,97106.34
2022-10-20T16:00:26.554Z,97106.44
2022-10-20T16:02:29.185Z,97098.56
2022-10-20T16:04:32.363Z,97109.16
2022-10-20T16:06:37.847Z,97111.78
2022-10-20T16:08:42.184Z,97109.16
2022-10-20T16:10:44.915Z,97099.56
2022-10-20T16:12:47.544Z,97096.19
2022-10-20T16:14:50.125Z,97098.00
2022-10-20T16:16:52.765Z,97093.75
2022-10-20T16:18:55.348Z,97069.28
2022-10-20T16:20:59.250Z,97067.47
2022-10-20T16:23:01.844Z,97073.69
2022-10-20T16:25:06.481Z,97085.13
2022-10-20T16:27:09.070Z,97102.69
2022-10-20T16:29:11.681Z,97113.31
2022-10-20T16:31:16.783Z,97113.47
2022-10-20T16:33:19.381Z,97117.81
2022-10-20T16:35:22.574Z,97118.72
2022-10-20T16:37:25.263Z,97123.97
2022-10-20T16:39:28.146Z,97119.69
2022-10-20T16:41:32.107Z,97111.03
2022-10-20T16:43:37.826Z,97087.47
2022-10-20T16:45:40.661Z,97087.47
2022-10-20T16:47:44.508Z,97087.47
2022-10-20T16:49:47.081Z,97084.00
2022-10-20T16:51:49.694Z,97107.66
2022-10-20T16:53:52.310Z,97110.19
2022-10-20T16:55:58.598Z,97099.97
2022-10-20T16:58:02.506Z,97088.69
2022-10-20T17:00:07.000Z,97081.84
2022-10-20T17:02:12.214Z,97068.78
2022-10-20T17:04:14.814Z,97044.38
2022-10-20T17:06:19.085Z,97016.53
2022-10-20T17:08:21.634Z,97012.13
2022-10-20T17:10:24.184Z,97005.25
2022-10-20T17:12:26.876Z,97008.00
2022-10-20T17:14:30.797Z,97012.50
2022-10-20T17:16:35.819Z,97021.22
2022-10-20T17:18:38.877Z,97044.97
2022-10-20T17:20:41.474Z,97058.13
2022-10-20T17:22:44.046Z,97065.03
2022-10-20T17:24:46.660Z,97071.25
2022-10-20T17:26:49.206Z,97080.81
2022-10-20T17:28:54.925Z,97071.25
2022-10-20T17:30:58.884Z,97069.44
2022-10-20T17:33:01.425Z,97055.59
2022-10-20T17:35:04.046Z,97037.91
2022-10-20T17:37:06.643Z,97029.22
2022-10-20T17:39:09.589Z,97023.94
2022-10-20T17:41:14.446Z,97041.50
2022-10-20T17:43:17.717Z,97060.09
2022-10-20T17:45:20.329Z,97065.44
2022-10-20T17:47:24.227Z,97072.47
2022-10-20T17:49:27.842Z,97089.09
2022-10-20T17:51:33.668Z,97085.59
2022-10-20T17:53:39.929Z,97082.13
2022-10-20T17:55:42.510Z,97076.06
2022-10-20T17:57:45.123Z,97072.56
2022-10-20T17:59:54.038Z,97077.72
2022-10-20T18:01:58.039Z,97090.97
2022-10-20T18:04:04.299Z,97089.09
2022-10-20T18:06:08.619Z,97082.13
2022-10-20T18:08:11.425Z,97089.00
2022-10-20T18:10:14.022Z,97093.41
2022-10-20T18:12:16.677Z,97098.75
2022-10-20T18:14:19.627Z,97108.31
2022-10-20T18:16:22.867Z,97114.50
2022-10-20T18:18:25.445Z,97108.50
2022-10-20T18:20:32.227Z,97102.38
2022-10-20T18:22:37.103Z,97089.34
2022-10-20T18:24:39.933Z,97087.66
2022-10-20T18:26:43.013Z,97097.31
2022-10-20T18:28:48.398Z,97116.56
2022-10-20T18:30:51.270Z,97123.50
2022-10-20T18:32:53.857Z,97124.16
2022-10-20T18:34:59.043Z,97114.50
2022-10-20T18:37:03.544Z,97105.69
2022-10-20T18:39:06.627Z,97078.56
2022-10-20T18:41:13.908Z,97053.97
2022-10-20T18:43:16.508Z,97048.72
2022-10-20T18:45:21.350Z,97058.38
2022-10-20T18:47:26.387Z,97067.22
2022-10-20T18:49:28.965Z,97071.63
2022-10-20T18:51:32.064Z,97082.03
2022-10-20T18:53:37.888Z,97074.06
2022-10-20T18:55:40.523Z,97075.84
2022-10-20T18:57:43.113Z,97066.16
2022-10-20T18:59:45.706Z,97059.22
2022-10-20T19:01:48.965Z,97046.19
2022-10-20T19:03:53.604Z,97043.66
2022-10-20T19:05:59.753Z,97050.69
2022-10-20T19:08:02.321Z,97053.41
2022-10-20T19:10:07.195Z,97052.47
2022-10-20T19:12:10.710Z,97072.66
2022-10-20T19:14:14.510Z,97083.28
2022-10-20T19:16:19.019Z,97091.97
2022-10-20T19:18:21.669Z,97093.03
2022-10-20T19:20:24.229Z,97097.53
2022-10-20T19:22:29.221Z,97100.25
2022-10-20T19:24:32.177Z,97104.56
2022-10-20T19:26:39.115Z,97104.66
2022-10-20T19:28:43.979Z,97110.19
2022-10-20T19:30:46.596Z,97121.06
2022-10-20T19:32:51.325Z,97115.69
2022-10-20T19:34:53.939Z,97110.44
2022-10-20T19:36:56.768Z,97102.56
2022-10-20T19:38:59.439Z,97100.88
2022-10-20T19:41:02.064Z,97087.84
2022-10-20T19:43:06.009Z,97089.72
2022-10-20T19:45:09.040Z,97069.56
2022-10-20T19:47:12.644Z,97075.63
2022-10-20T19:49:16.138Z,97059.97
2022-10-20T19:51:21.186Z,97074.97
2022-10-20T19:53:23.866Z,97082.13
2022-10-20T19:55:26.599Z,97084.75
2022-10-20T19:57:29.825Z,97084.81
2022-10-20T19:59:33.747Z,97086.53
2022-10-20T20:01:37.122Z,97084.81
2022-10-20T20:03:39.741Z,97078.66
2022-10-20T20:05:42.393Z,97062.97
2022-10-20T20:07:45.015Z,97078.66
2022-10-20T20:09:51.586Z,97067.28
2022-10-20T20:11:54.532Z,97057.72
2022-10-20T20:13:59.739Z,97058.56
2022-10-20T20:16:08.657Z,97066.63
2022-10-20T20:18:14.586Z,97069.25
2022-10-20T20:20:17.534Z,97065.88
2022-10-20T20:22:20.302Z,97059.78
2022-10-20T20:24:23.014Z,97047.47
2022-10-20T20:26:26.830Z,97036.16
2022-10-20T20:28:29.497Z,97047.59
2022-10-20T20:30:32.275Z,97049.53
2022-10-20T20:32:38.606Z,97044.28
2022-10-20T20:34:41.927Z,97047.88
2022-10-20T20:36:44.492Z,97050.50
2022-10-20T20:38:47.207Z,97054.22
2022-10-20T20:40:49.845Z,97051.50
2022-10-20T20:42:52.390Z,97056.75
2022-10-20T20:44:55.046Z,97048.78
2022-10-20T20:46:57.644Z,97036.50
2022-10-20T20:49:02.201Z,97034.75
2022-10-20T20:51:05.806Z,97032.22
2022-10-20T20:53:08.704Z,97041.00
2022-10-20T20:55:11.356Z,97047.09
2022-10-20T20:57:13.953Z,97058.56
2022-10-20T20:59:16.558Z,97055.84
2022-10-20T21:01:20.795Z,97059.38
2022-10-20T21:03:23.388Z,97057.50
2022-10-20T21:05:27.344Z,97059.22
2022-10-20T21:07:29.915Z,97062.66
2022-10-20T21:09:32.638Z,97060.03
2022-10-20T21:11:37.306Z,97053.13
2022-10-20T21:13:41.324Z,97054.88
2022-10-20T21:15:43.996Z,97047.00
2022-10-20T21:17:46.549Z,97048.06
2022-10-20T21:19:49.245Z,97049.84
2022-10-20T21:21:57.320Z,97050.78
2022-10-20T21:24:01.194Z,97055.09
2022-10-20T21:26:03.881Z,97048.22
2022-10-20T21:28:06.528Z,97040.44
2022-10-20T21:30:10.136Z,97033.50
2022-10-20T21:32:12.764Z,97032.75
2022-10-20T21:34:15.864Z,97039.69
2022-10-20T21:36:19.787Z,97041.56
2022-10-20T21:38:28.597Z,97047.66
2022-10-20T21:40:33.021Z,97044.34
2022-10-20T21:42:35.903Z,97034.06
2022-10-20T21:44:38.615Z,97028.03
2022-10-20T21:46:43.933Z,97038.63
2022-10-20T21:48:47.986Z,97039.59
2022-10-20T21:50:50.550Z,97046.78
2022-10-20T21:52:53.175Z,97046.78
2022-10-20T21:54:57.128Z,97055.69
2022-10-20T21:56:59.729Z,97054.06
2022-10-20T21:59:02.316Z,97055.94
2022-10-20T22:01:10.376Z,97062.09
2022-10-20T22:03:13.001Z,97066.63
2022-10-20T22:05:15.724Z,97065.75
2022-10-20T22:07:21.103Z,97045.63
2022-10-20T22:09:24.453Z,97045.69
2022-10-20T22:11:30.949Z,97047.38
2022-10-20T22:13:34.373Z,97046.44
2022-10-20T22:15:38.484Z,97033.31
2022-10-20T22:17:41.035Z,97026.47
2022-10-20T22:19:43.819Z,97022.16
2022-10-20T22:21:48.572Z,97023.75
2022-10-20T22:23:53.830Z,97003.78
2022-10-20T22:25:56.453Z,96995.09
2022-10-20T22:28:00.379Z,96996.84
2022-10-20T22:30:02.962Z,96994.34
2022-10-20T22:32:06.038Z,96988.22
2022-10-20T22:34:09.914Z,96990.94
2022-10-20T22:36:12.524Z,96997.97
2022-10-20T22:38:15.110Z,96995.25
2022-10-20T22:40:18.032Z,97006.69
2022-10-20T22:42:22.628Z,97010.94
2022-10-20T22:44:28.770Z,97006.59
2022-10-20T22:46:31.384Z,97005.00
2022-10-20T22:48:33.966Z,97007.63
2022-10-20T22:50:36.587Z,96997.22
2022-10-20T22:52:39.567Z,96985.78
2022-10-20T22:54:42.443Z,96970.06
2022-10-20T22:56:45.045Z,96966.56
2022-10-20T22:58:47.891Z,96969.19
2022-10-20T23:00:51.880Z,96969.38
2022-10-20T23:02:54.509Z,96972.09
2022-10-20T23:04:57.101Z,96961.69
2022-10-20T23:09:08.016Z,96967.88
2022-10-20T23:11:11.092Z,96965.34
2022-10-20T23:13:13.646Z,96960.19
2022-10-20T23:15:16.436Z,96966.44
2022-10-20T23:17:20.346Z,96967.28
2022-10-20T23:19:22.935Z,96970.00
2022-10-20T23:21:26.380Z,96969.91
2022-10-20T23:23:29.236Z,96961.13
2022-10-20T23:25:31.906Z,96961.94
2022-10-20T23:27:34.778Z,96956.72
2022-10-20T23:29:37.560Z,96949.03
2022-10-20T23:31:40.175Z,96956.91
2022-10-20T23:33:45.604Z,96963.09
2022-10-20T23:35:48.688Z,96955.38
2022-10-20T23:37:51.595Z,96966.91
2022-10-20T23:39:54.171Z,96980.28
2022-10-20T23:41:56.775Z,96976.72
2022-10-20T23:43:59.344Z,96975.97
2022-10-20T23:46:01.943Z,96959.47
2022-10-20T23:48:04.664Z,96959.75
2022-10-20T23:50:12.000Z,96964.25
2022-10-20T23:52:14.568Z,96963.38
2022-10-20T23:54:17.120Z,96956.47
2022-10-20T23:56:19.744Z,96963.38
2022-10-20T23:58:23.163Z,96968.47
